Terminal Aerodrome Forecast
Issued by NWS

Home | Current Version | Previous Version | Text Only | Print | Product List | Glossary On
Versions: 1 2 3 4 5 6 7 8 9 10 11 12 13 14 15 16 17
000
FTUS43 KFGF 240520
TAFTVF
TAF
KTVF 240520Z 2406/2506 26009KT P6SM SCT029 OVC035
     FM240800 28011KT P6SM SCT050
     FM241600 25014G22KT P6SM FEW050
     FM250500 28008KT P6SM SCT110=

USA.gov is the U.S. government's official web portal to all federal, state and local government web resources and services.